Time;durP1;ratioP1;P1;durP2;ratioP2;P2;SDS_P1;SDS_P2;PMS_P1;PMS_P2;Temp;Humidity;BMP_temperature;BMP_pressure;BME280_temperature;BME280_humidity;BME280_pressure;Samples;Min_cycle;Max_cycle;Signal;HPM_P1;HPM_P2
2021/10/08 00:00:10;;;;;;;;;1.00;1.00;;;;;;;;2774932;51;8896;-65
2021/10/08 00:02:35;;;;;;;;;0.80;0.80;;;;;;;;2775164;51;8797;-63
2021/10/08 00:05:01;;;;;;;;;1.00;1.00;;;;;;;;2775196;51;8801;-63
2021/10/08 00:07:27;;;;;;;;;1.00;0.00;;;;;;;;2774824;51;9422;-65
2021/10/08 00:09:52;;;;;;;;;0.50;0.50;;;;;;;;2774989;51;8781;-66
2021/10/08 00:12:18;;;;;;;;;2.00;1.00;;;;;;;;2775321;51;8795;-64
2021/10/08 00:14:44;;;;;;;;;2.00;2.00;;;;;;;;2774964;51;8795;-64
2021/10/08 00:17:10;;;;;;;;;2.00;1.00;;;;;;;;2775268;51;8872;-65
2021/10/08 00:19:36;;;;;;;;;0.00;0.00;;;;;;;;2774945;51;9475;-64
2021/10/08 00:22:02;;;;;;;;;0.00;0.00;;;;;;;;2775275;51;8796;-63
2021/10/08 00:24:28;;;;;;;;;1.00;0.00;;;;;;;;2775038;51;9062;-65
2021/10/08 00:26:54;;;;;;;;;0.67;0.67;;;;;;;;2776457;51;11387;-63
2021/10/08 00:29:19;;;;;;;;;0.80;0.80;;;;;;;;2776982;51;8771;-63
2021/10/08 00:31:45;;;;;;;;;0.00;0.00;;;;;;;;2777171;51;8782;-65
2021/10/08 00:34:11;;;;;;;;;1.00;1.00;;;;;;;;2776862;51;8907;-65
2021/10/08 00:36:36;;;;;;;;;0.00;0.00;;;;;;;;2777169;51;8936;-62
2021/10/08 00:39:02;;;;;;;;;0.50;0.50;;;;;;;;2776715;51;8798;-63
2021/10/08 00:41:28;;;;;;;;;0.40;0.40;;;;;;;;2777181;51;8792;-64
2021/10/08 00:43:54;;;;;;;;;0.00;0.00;;;;;;;;2775224;51;8792;-65
2021/10/08 00:46:20;;;;;;;;;0.60;0.60;;;;;;;;2774796;51;8793;-64
2021/10/08 00:48:50;;;;;;;;;0.75;0.75;;;;;;;;2774960;51;8765;-64
2021/10/08 00:51:15;;;;;;;;;1.00;0.00;;;;;;;;2774787;51;11439;-62
2021/10/08 00:53:41;;;;;;;;;0.67;0.67;;;;;;;;2774978;51;8801;-64
2021/10/08 00:56:07;;;;;;;;;0.00;0.00;;;;;;;;2774904;51;8887;-64
2021/10/08 00:58:34;;;;;;;;;0.00;0.00;;;;;;;;2774556;51;8793;-64
2021/10/08 01:00:59;;;;;;;;;0.50;0.50;;;;;;;;2774776;51;8777;-63
2021/10/08 01:03:25;;;;;;;;;0.00;0.00;;;;;;;;2774686;51;8916;-64
2021/10/08 01:05:51;;;;;;;;;0.50;0.00;;;;;;;;2774840;51;8862;-63
2021/10/08 01:08:16;;;;;;;;;0.00;0.00;;;;;;;;2774865;51;8761;-65
2021/10/08 01:10:43;;;;;;;;;0.00;0.00;;;;;;;;2774625;51;8876;-64
2021/10/08 01:13:09;;;;;;;;;0.00;0.00;;;;;;;;2774778;51;11551;-64
2021/10/08 01:15:35;;;;;;;;;0.00;0.00;;;;;;;;2774747;51;8887;-64
2021/10/08 01:18:01;;;;;;;;;0.75;0.75;;;;;;;;2774856;51;8781;-63
2021/10/08 01:20:27;;;;;;;;;1.00;1.00;;;;;;;;2774979;51;8788;-63
2021/10/08 01:22:59;;;;;;;;;0.00;0.00;;;;;;;;2775044;51;8805;-64
2021/10/08 01:25:26;;;;;;;;;2.75;1.50;;;;;;;;2774891;51;8874;-63
2021/10/08 01:27:52;;;;;;;;;1.00;1.00;;;;;;;;2774782;51;8796;-63
2021/10/08 01:30:18;;;;;;;;;0.00;0.00;;;;;;;;2774622;51;8769;-64
2021/10/08 01:32:45;;;;;;;;;1.00;1.00;;;;;;;;2774619;51;8793;-64
2021/10/08 01:35:11;;;;;;;;;0.00;0.00;;;;;;;;2774604;51;11051;-64
2021/10/08 01:37:36;;;;;;;;;0.75;0.25;;;;;;;;2774114;51;8860;-63
2021/10/08 01:40:03;;;;;;;;;0.00;0.00;;;;;;;;2773569;51;8781;-63
2021/10/08 01:42:29;;;;;;;;;0.00;0.00;;;;;;;;2773567;51;8792;-64
2021/10/08 01:44:55;;;;;;;;;0.00;0.00;;;;;;;;2774036;51;8776;-64
2021/10/08 01:47:20;;;;;;;;;0.00;0.00;;;;;;;;2773682;51;11442;-63
2021/10/08 01:49:46;;;;;;;;;0.00;0.00;;;;;;;;2773535;51;8879;-63
2021/10/08 01:52:11;;;;;;;;;0.00;0.00;;;;;;;;2773737;51;8802;-62
2021/10/08 01:54:37;;;;;;;;;1.00;1.00;;;;;;;;2773574;51;8801;-64
2021/10/08 01:57:03;;;;;;;;;1.00;1.00;;;;;;;;2773709;51;8794;-65
2021/10/08 01:59:29;;;;;;;;;0.00;0.00;;;;;;;;2773520;51;11460;-64
2021/10/08 02:01:54;;;;;;;;;0.67;0.67;;;;;;;;2773471;51;8776;-63
2021/10/08 02:04:20;;;;;;;;;0.00;0.00;;;;;;;;2773631;51;9479;-63
2021/10/08 02:06:46;;;;;;;;;0.00;0.00;;;;;;;;2773635;51;8765;-63
2021/10/08 02:09:11;;;;;;;;;0.00;0.00;;;;;;;;2773569;51;8801;-64
2021/10/08 02:11:37;;;;;;;;;0.00;0.00;;;;;;;;2773558;51;8805;-63
2021/10/08 02:14:03;;;;;;;;;1.00;0.00;;;;;;;;2773836;51;8805;-64
2021/10/08 02:16:29;;;;;;;;;0.75;0.75;;;;;;;;2773459;51;8912;-65
2021/10/08 02:18:55;;;;;;;;;0.00;0.00;;;;;;;;2773805;51;8869;-63
2021/10/08 02:21:22;;;;;;;;;0.80;0.80;;;;;;;;2773682;51;8821;-65
2021/10/08 02:23:48;;;;;;;;;0.00;0.00;;;;;;;;2773389;51;8801;-64
2021/10/08 02:26:14;;;;;;;;;2.00;0.25;;;;;;;;2773984;51;9378;-64
2021/10/08 02:28:40;;;;;;;;;1.60;0.80;;;;;;;;2773441;51;8758;-63
2021/10/08 02:31:05;;;;;;;;;0.00;0.00;;;;;;;;2773381;51;9469;-65
2021/10/08 02:33:31;;;;;;;;;0.00;0.00;;;;;;;;2773571;51;8801;-64
2021/10/08 02:35:57;;;;;;;;;0.50;0.50;;;;;;;;2773490;51;8777;-64
2021/10/08 02:38:23;;;;;;;;;0.00;0.00;;;;;;;;2773367;51;8945;-65
2021/10/08 02:40:48;;;;;;;;;0.00;0.00;;;;;;;;2773613;51;8769;-63
2021/10/08 02:43:14;;;;;;;;;0.75;0.75;;;;;;;;2773524;51;8809;-64
2021/10/08 02:45:40;;;;;;;;;0.00;0.00;;;;;;;;2773325;51;11449;-65
2021/10/08 02:48:06;;;;;;;;;0.00;0.00;;;;;;;;2773643;51;8895;-64
2021/10/08 02:50:32;;;;;;;;;2.33;2.33;;;;;;;;2773309;51;8807;-65
2021/10/08 02:52:58;;;;;;;;;3.67;1.00;;;;;;;;2773345;51;8781;-63
2021/10/08 02:55:23;;;;;;;;;1.00;1.00;;;;;;;;2773256;51;8784;-63
2021/10/08 02:57:49;;;;;;;;;2.33;2.33;;;;;;;;2773313;51;12106;-63
2021/10/08 03:00:15;;;;;;;;;6.00;2.00;;;;;;;;2773180;51;8769;-64
2021/10/08 03:02:40;;;;;;;;;2.00;0.00;;;;;;;;2773435;51;8781;-63
2021/10/08 03:05:06;;;;;;;;;0.00;0.00;;;;;;;;2773410;51;8757;-64
2021/10/08 03:07:32;;;;;;;;;0.00;0.00;;;;;;;;2773290;51;8765;-64
2021/10/08 03:09:58;;;;;;;;;1.33;0.00;;;;;;;;2773278;51;8773;-64
2021/10/08 03:12:24;;;;;;;;;0.75;0.75;;;;;;;;2773217;51;8785;-63
2021/10/08 03:14:49;;;;;;;;;1.50;1.00;;;;;;;;2773140;51;8765;-62
2021/10/08 03:17:15;;;;;;;;;0.00;0.00;;;;;;;;2773109;51;8809;-65
2021/10/08 03:19:41;;;;;;;;;0.50;0.50;;;;;;;;2773088;51;8796;-65
2021/10/08 03:22:06;;;;;;;;;0.00;0.00;;;;;;;;2773487;51;8787;-64
2021/10/08 03:24:32;;;;;;;;;1.00;1.00;;;;;;;;2773028;51;8801;-64
2021/10/08 03:26:58;;;;;;;;;1.00;0.33;;;;;;;;2773289;51;8781;-64
2021/10/08 03:29:23;;;;;;;;;1.00;1.00;;;;;;;;2773055;51;8777;-65
2021/10/08 03:31:49;;;;;;;;;0.67;0.00;;;;;;;;2773256;51;8854;-65
2021/10/08 03:34:15;;;;;;;;;1.00;1.00;;;;;;;;2773228;51;8797;-64
2021/10/08 03:39:07;;;;;;;;;0.00;0.00;;;;;;;;2773154;51;8800;-64
2021/10/08 03:41:33;;;;;;;;;1.20;1.00;;;;;;;;2773055;51;8789;-64
2021/10/08 03:44:01;;;;;;;;;1.50;1.00;;;;;;;;2773204;51;8769;-64
2021/10/08 03:46:32;;;;;;;;;1.00;1.00;;;;;;;;2773033;51;8765;-64
2021/10/08 03:51:33;;;;;;;;;1.25;1.25;;;;;;;;2773099;51;8891;-63
2021/10/08 03:53:59;;;;;;;;;1.00;1.00;;;;;;;;2773149;51;8788;-65
2021/10/08 03:56:25;;;;;;;;;1.00;1.00;;;;;;;;2772415;51;8811;-65
2021/10/08 03:58:51;;;;;;;;;1.00;1.00;;;;;;;;2773002;51;8805;-65
2021/10/08 04:01:16;;;;;;;;;1.20;1.20;;;;;;;;2772981;51;8777;-64
2021/10/08 04:03:42;;;;;;;;;2.00;0.67;;;;;;;;2772943;51;8907;-64
2021/10/08 04:06:08;;;;;;;;;0.67;0.67;;;;;;;;2773140;51;9535;-66
2021/10/08 04:08:33;;;;;;;;;1.00;1.00;;;;;;;;2772589;51;8788;-64
2021/10/08 04:10:59;;;;;;;;;1.00;1.00;;;;;;;;2772956;51;8796;-66
2021/10/08 04:13:25;;;;;;;;;2.67;1.00;;;;;;;;2773116;51;9421;-66
2021/10/08 04:15:50;;;;;;;;;3.33;2.00;;;;;;;;2772913;51;8781;-65
2021/10/08 04:18:16;;;;;;;;;1.00;1.00;;;;;;;;2773077;51;8777;-67
2021/10/08 04:20:42;;;;;;;;;2.00;1.00;;;;;;;;2772904;51;8796;-65
2021/10/08 04:23:08;;;;;;;;;4.00;1.00;;;;;;;;2772785;51;8821;-68
2021/10/08 04:25:33;;;;;;;;;1.00;1.00;;;;;;;;2773006;51;11414;-67
2021/10/08 04:27:59;;;;;;;;;0.67;0.00;;;;;;;;2773307;51;8821;-68
2021/10/08 04:30:25;;;;;;;;;1.67;1.00;;;;;;;;2772815;51;8887;-68
2021/10/08 04:32:51;;;;;;;;;2.00;2.00;;;;;;;;2773072;51;11440;-66
2021/10/08 04:35:16;;;;;;;;;1.00;1.00;;;;;;;;2773017;51;8887;-65
2021/10/08 04:37:42;;;;;;;;;1.00;0.33;;;;;;;;2772726;51;11455;-64
2021/10/08 04:40:08;;;;;;;;;2.00;1.00;;;;;;;;2772830;51;8899;-64
2021/10/08 04:42:34;;;;;;;;;0.25;0.25;;;;;;;;2772705;51;11419;-64
2021/10/08 04:44:59;;;;;;;;;2.00;1.00;;;;;;;;2772893;51;8875;-65
2021/10/08 04:47:25;;;;;;;;;2.00;1.00;;;;;;;;2772668;51;9456;-65
2021/10/08 04:49:51;;;;;;;;;1.00;1.00;;;;;;;;2772765;51;8854;-65
2021/10/08 04:52:17;;;;;;;;;2.00;1.33;;;;;;;;2772728;51;8786;-64
2021/10/08 04:54:42;;;;;;;;;1.00;1.00;;;;;;;;2772931;51;8773;-65
2021/10/08 04:57:08;;;;;;;;;3.67;1.67;;;;;;;;2773026;51;8757;-66
2021/10/08 04:59:34;;;;;;;;;2.33;1.00;;;;;;;;2772769;51;10228;-65
2021/10/08 05:02:00;;;;;;;;;1.00;0.00;;;;;;;;2773158;51;8773;-67
2021/10/08 05:04:26;;;;;;;;;0.00;0.00;;;;;;;;2772837;51;10094;-64
2021/10/08 05:06:51;;;;;;;;;1.00;1.00;;;;;;;;2772816;51;8781;-66
2021/10/08 05:09:17;;;;;;;;;2.00;1.00;;;;;;;;2772814;51;8781;-66
2021/10/08 05:11:42;;;;;;;;;2.00;2.00;;;;;;;;2772836;51;8828;-64
2021/10/08 05:14:10;;;;;;;;;1.00;1.00;;;;;;;;2773302;51;9403;-65
2021/10/08 05:16:37;;;;;;;;;4.00;2.50;;;;;;;;2774103;51;8769;-66
2021/10/08 05:19:02;;;;;;;;;1.75;1.75;;;;;;;;2773803;51;8773;-67
2021/10/08 05:21:28;;;;;;;;;3.00;1.00;;;;;;;;2773670;51;8793;-65
2021/10/08 05:23:54;;;;;;;;;6.00;2.33;;;;;;;;2773536;51;11471;-65
2021/10/08 05:26:19;;;;;;;;;2.00;1.00;;;;;;;;2773574;51;8773;-65
2021/10/08 05:28:45;;;;;;;;;1.50;0.25;;;;;;;;2773707;51;8777;-64
2021/10/08 05:31:10;;;;;;;;;1.33;1.33;;;;;;;;2774155;51;9474;-64
2021/10/08 05:33:36;;;;;;;;;3.00;1.67;;;;;;;;2773654;51;8780;-64
2021/10/08 05:36:02;;;;;;;;;1.00;1.00;;;;;;;;2773656;51;8773;-66
2021/10/08 05:38:27;;;;;;;;;2.00;2.00;;;;;;;;2773502;51;8879;-66
2021/10/08 05:40:54;;;;;;;;;3.00;2.00;;;;;;;;2773621;51;8772;-64
2021/10/08 05:43:20;;;;;;;;;1.50;1.00;;;;;;;;2773676;51;8789;-69
2021/10/08 05:45:45;;;;;;;;;2.00;2.00;;;;;;;;2773498;51;8883;-68
2021/10/08 05:48:11;;;;;;;;;0.67;0.67;;;;;;;;2773663;51;8777;-69
2021/10/08 05:50:37;;;;;;;;;3.00;1.67;;;;;;;;2773555;51;8784;-69
2021/10/08 05:53:03;;;;;;;;;3.00;1.33;;;;;;;;2773588;51;8799;-68
2021/10/08 05:55:29;;;;;;;;;1.00;1.00;;;;;;;;2773598;51;8780;-68
2021/10/08 05:57:55;;;;;;;;;0.50;0.50;;;;;;;;2773098;51;8773;-70
2021/10/08 06:00:20;;;;;;;;;2.67;1.67;;;;;;;;2776007;51;8798;-67
2021/10/08 06:02:46;;;;;;;;;2.33;1.67;;;;;;;;2777809;51;11436;-67
2021/10/08 06:05:12;;;;;;;;;2.00;2.00;;;;;;;;2779505;51;8774;-72
2021/10/08 06:07:37;;;;;;;;;2.33;2.00;;;;;;;;2773738;51;8780;-64
2021/10/08 06:10:03;;;;;;;;;1.33;1.00;;;;;;;;2773568;51;8883;-65
2021/10/08 06:12:30;;;;;;;;;2.75;1.75;;;;;;;;2773683;51;8870;-65
2021/10/08 06:14:56;;;;;;;;;1.33;1.33;;;;;;;;2776111;51;8771;-68
2021/10/08 06:17:22;;;;;;;;;0.50;0.50;;;;;;;;2779690;51;8803;-69
2021/10/08 06:19:47;;;;;;;;;1.00;1.00;;;;;;;;2779554;51;8790;-67
2021/10/08 06:22:13;;;;;;;;;1.00;1.00;;;;;;;;2779501;51;8795;-67
2021/10/08 06:24:39;;;;;;;;;1.33;1.33;;;;;;;;2779395;51;8771;-68
2021/10/08 06:27:04;;;;;;;;;3.00;1.00;;;;;;;;2779557;51;8785;-67
2021/10/08 06:29:30;;;;;;;;;2.00;2.00;;;;;;;;2779363;51;8762;-65
2021/10/08 06:31:55;;;;;;;;;3.67;1.33;;;;;;;;2776931;51;8761;-65
2021/10/08 06:34:21;;;;;;;;;3.00;2.67;;;;;;;;2773486;51;8786;-67
2021/10/08 06:36:47;;;;;;;;;2.00;2.00;;;;;;;;2773343;51;8777;-66
2021/10/08 06:39:13;;;;;;;;;1.67;1.67;;;;;;;;2773464;51;8793;-66
2021/10/08 06:41:38;;;;;;;;;2.75;2.00;;;;;;;;2773494;51;8773;-63
2021/10/08 06:44:04;;;;;;;;;4.00;4.00;;;;;;;;2773270;51;8789;-64
2021/10/08 06:46:30;;;;;;;;;1.00;1.00;;;;;;;;2773263;51;8773;-65
2021/10/08 06:48:55;;;;;;;;;1.00;1.00;;;;;;;;2773374;51;8962;-67
2021/10/08 06:51:21;;;;;;;;;3.00;2.00;;;;;;;;2773403;51;8993;-64
2021/10/08 06:53:47;;;;;;;;;3.00;3.00;;;;;;;;2773504;51;8777;-67
2021/10/08 06:56:13;;;;;;;;;2.00;2.00;;;;;;;;2773406;51;8804;-66
2021/10/08 06:58:38;;;;;;;;;1.00;1.00;;;;;;;;2773347;51;8803;-64
2021/10/08 07:01:04;;;;;;;;;1.00;1.00;;;;;;;;2773522;51;8784;-65
2021/10/08 07:03:29;;;;;;;;;1.00;1.00;;;;;;;;2773472;51;8850;-65
2021/10/08 07:05:55;;;;;;;;;1.00;1.00;;;;;;;;2775632;51;8885;-66
2021/10/08 07:08:21;;;;;;;;;0.00;0.00;;;;;;;;2779439;51;9427;-66
2021/10/08 07:10:46;;;;;;;;;1.33;1.33;;;;;;;;2779517;51;8782;-66
2021/10/08 07:13:12;;;;;;;;;2.00;1.00;;;;;;;;2779434;51;8778;-67
2021/10/08 07:15:38;;;;;;;;;1.25;1.00;;;;;;;;2775483;51;8781;-66
2021/10/08 07:18:05;;;;;;;;;0.67;0.67;;;;;;;;2773077;51;8765;-66
2021/10/08 07:20:32;;;;;;;;;1.25;1.25;;;;;;;;2773333;51;11429;-66
2021/10/08 07:22:58;;;;;;;;;3.00;1.00;;;;;;;;2773371;51;8773;-65
2021/10/08 07:25:27;;;;;;;;;0.80;0.80;;;;;;;;2773139;51;8857;-66
2021/10/08 07:27:53;;;;;;;;;1.60;1.40;;;;;;;;2773088;51;8773;-67
2021/10/08 07:30:20;;;;;;;;;1.50;1.00;;;;;;;;2773097;51;9446;-67
2021/10/08 07:32:46;;;;;;;;;1.75;1.75;;;;;;;;2773216;51;8784;-66
2021/10/08 07:35:13;;;;;;;;;3.25;2.00;;;;;;;;2773073;51;8761;-66
2021/10/08 07:37:39;;;;;;;;;2.25;2.25;;;;;;;;2772962;51;8883;-67
2021/10/08 07:40:05;;;;;;;;;1.00;1.00;;;;;;;;2773092;51;8880;-66
2021/10/08 07:42:32;;;;;;;;;0.00;0.00;;;;;;;;2773367;51;9429;-66
2021/10/08 07:44:58;;;;;;;;;2.25;2.25;;;;;;;;2773283;51;8789;-67
2021/10/08 07:47:23;;;;;;;;;3.67;3.00;;;;;;;;2773458;51;8773;-65
2021/10/08 07:49:49;;;;;;;;;1.00;1.00;;;;;;;;2772601;51;8795;-66
2021/10/08 07:52:15;;;;;;;;;2.33;1.00;;;;;;;;2773226;51;8793;-65
2021/10/08 07:54:41;;;;;;;;;1.33;1.33;;;;;;;;2773108;51;8791;-67
2021/10/08 07:57:06;;;;;;;;;1.40;1.00;;;;;;;;2773005;51;8773;-66
2021/10/08 07:59:32;;;;;;;;;1.75;1.00;;;;;;;;2773148;51;8781;-65
2021/10/08 08:01:58;;;;;;;;;1.00;1.00;;;;;;;;2773041;51;8785;-66
2021/10/08 08:04:24;;;;;;;;;1.00;1.00;;;;;;;;2773186;51;8782;-64
2021/10/08 08:06:50;;;;;;;;;1.00;0.80;;;;;;;;2777542;51;8766;-66
2021/10/08 08:09:15;;;;;;;;;1.75;1.75;;;;;;;;2778987;51;8884;-66
2021/10/08 08:11:41;;;;;;;;;1.50;1.50;;;;;;;;2778962;51;8797;-67
2021/10/08 08:14:07;;;;;;;;;2.00;0.60;;;;;;;;2779152;51;8759;-67
2021/10/08 08:16:33;;;;;;;;;0.40;0.40;;;;;;;;2779013;51;8789;-67
2021/10/08 08:18:59;;;;;;;;;2.25;2.25;;;;;;;;2779143;51;8806;-67
2021/10/08 08:21:24;;;;;;;;;1.00;1.00;;;;;;;;2778975;51;8770;-66
2021/10/08 08:23:50;;;;;;;;;1.75;1.75;;;;;;;;2776521;51;8857;-66
2021/10/08 08:26:16;;;;;;;;;0.25;0.00;;;;;;;;2773042;51;8769;-64
2021/10/08 08:28:41;;;;;;;;;1.25;0.00;;;;;;;;2772938;51;8773;-66
2021/10/08 08:31:07;;;;;;;;;3.50;1.25;;;;;;;;2772632;51;8753;-66
2021/10/08 08:33:35;;;;;;;;;1.00;1.00;;;;;;;;2773011;51;9465;-66
2021/10/08 08:36:02;;;;;;;;;0.00;0.00;;;;;;;;2772854;51;8788;-66
2021/10/08 08:38:28;;;;;;;;;1.00;1.00;;;;;;;;2772872;51;8769;-65
2021/10/08 08:40:53;;;;;;;;;1.00;0.00;;;;;;;;2773140;51;8769;-64
2021/10/08 08:43:19;;;;;;;;;1.00;1.00;;;;;;;;2772915;51;8795;-67
2021/10/08 08:45:45;;;;;;;;;2.00;2.00;;;;;;;;2773189;51;8773;-68
2021/10/08 08:48:11;;;;;;;;;1.00;1.00;;;;;;;;2773673;51;8765;-66
2021/10/08 08:50:44;;;;;;;;;3.60;2.00;;;;;;;;2773709;51;8792;-68
2021/10/08 08:53:28;;;;;;;;;3.60;1.00;;;;;;;;2772912;51;8911;-72
2021/10/08 08:56:12;;;;;;;;;1.80;1.80;;;;;;;;2773735;51;8766;-73
2021/10/08 08:59:06;;;;;;;;;0.00;0.00;;;;;;;;2773390;51;8797;-66
2021/10/08 09:02:01;;;;;;;;;1.80;1.20;;;;;;;;2773688;51;8769;-63
2021/10/08 09:04:45;;;;;;;;;2.00;2.00;;;;;;;;2773678;51;8809;-65
2021/10/08 09:07:34;;;;;;;;;1.50;1.00;;;;;;;;2779685;51;9424;-65
2021/10/08 09:10:19;;;;;;;;;1.80;1.00;;;;;;;;2779803;51;8782;-64
2021/10/08 09:13:04;;;;;;;;;1.00;1.00;;;;;;;;2779609;51;9408;-66
2021/10/08 09:15:42;;;;;;;;;1.00;1.00;;;;;;;;2779583;51;8763;-65
2021/10/08 09:18:10;;;;;;;;;0.80;0.80;;;;;;;;2779784;51;8766;-68
2021/10/08 09:20:37;;;;;;;;;1.00;1.00;;;;;;;;2779737;51;8840;-69
2021/10/08 09:23:03;;;;;;;;;1.00;1.00;;;;;;;;2778882;51;8896;-72
2021/10/08 09:25:33;;;;;;;;;2.00;1.00;;;;;;;;2773764;51;8761;-67
2021/10/08 09:28:08;;;;;;;;;1.80;1.80;;;;;;;;2773648;51;8860;-68
2021/10/08 09:30:36;;;;;;;;;1.00;1.00;;;;;;;;2773539;51;9402;-66
2021/10/08 09:33:04;;;;;;;;;6.50;1.25;;;;;;;;2773758;51;8769;-66
2021/10/08 09:35:29;;;;;;;;;2.00;2.00;;;;;;;;2773796;51;8784;-66
2021/10/08 09:38:03;;;;;;;;;1.00;1.00;;;;;;;;2773639;51;8761;-68
2021/10/08 09:40:31;;;;;;;;;0.25;0.00;;;;;;;;2774042;51;8776;-66
2021/10/08 09:42:59;;;;;;;;;0.40;0.00;;;;;;;;2773659;51;8777;-69
2021/10/08 09:45:39;;;;;;;;;1.80;0.80;;;;;;;;2774106;51;8784;-66
2021/10/08 09:48:05;;;;;;;;;1.00;0.00;;;;;;;;2773580;51;8765;-65
2021/10/08 09:50:31;;;;;;;;;2.00;1.75;;;;;;;;2773494;51;8801;-68
2021/10/08 09:53:14;;;;;;;;;1.00;1.00;;;;;;;;2774133;51;8851;-66
2021/10/08 09:55:40;;;;;;;;;1.50;0.75;;;;;;;;2773990;51;8765;-66
2021/10/08 09:58:06;;;;;;;;;2.00;2.00;;;;;;;;2773444;51;8765;-66
2021/10/08 10:01:01;;;;;;;;;0.00;0.00;;;;;;;;2773746;51;8777;-65
2021/10/08 10:03:27;;;;;;;;;1.00;0.00;;;;;;;;2773895;51;8789;-66
2021/10/08 10:05:54;;;;;;;;;1.75;1.75;;;;;;;;2775602;51;8786;-67
2021/10/08 10:08:20;;;;;;;;;2.50;0.25;;;;;;;;2779624;51;8855;-66
2021/10/08 10:10:46;;;;;;;;;0.67;0.33;;;;;;;;2779819;51;8775;-68
2021/10/08 10:13:12;;;;;;;;;1.00;0.50;;;;;;;;2779689;51;11345;-67
2021/10/08 10:15:42;;;;;;;;;1.50;0.75;;;;;;;;2779564;51;9541;-66
2021/10/08 10:18:09;;;;;;;;;1.75;0.50;;;;;;;;2779542;51;9459;-67
2021/10/08 10:20:37;;;;;;;;;2.50;2.50;;;;;;;;2780005;51;8856;-65
2021/10/08 10:23:06;;;;;;;;;0.00;0.00;;;;;;;;2778957;51;8777;-69
2021/10/08 10:25:33;;;;;;;;;2.00;2.00;;;;;;;;2773369;51;8883;-65
2021/10/08 10:27:59;;;;;;;;;2.50;2.50;;;;;;;;2773335;51;8765;-66
2021/10/08 10:30:25;;;;;;;;;0.50;0.50;;;;;;;;2773381;51;8777;-64
2021/10/08 10:32:51;;;;;;;;;7.25;3.75;;;;;;;;2773346;51;8773;-67
2021/10/08 10:35:58;;;;;;;;;2.00;2.00;;;;;;;;2773404;51;8777;-65
2021/10/08 10:38:30;;;;;;;;;1.75;1.75;;;;;;;;2755515;52;8771;-67
2021/10/08 10:41:08;;;;;;;;;0.75;0.75;;;;;;;;2760171;52;8770;-65
2021/10/08 10:43:43;;;;;;;;;0.25;0.25;;;;;;;;2768167;51;8816;-67
2021/10/08 10:46:18;;;;;;;;;2.00;2.00;;;;;;;;2773433;51;8769;-65
2021/10/08 10:49:10;;;;;;;;;2.25;1.50;;;;;;;;2773191;51;8792;-68
2021/10/08 10:51:35;;;;;;;;;1.25;1.25;;;;;;;;2773356;51;8784;-66
2021/10/08 10:54:01;;;;;;;;;3.00;2.67;;;;;;;;2773095;51;8833;-65
2021/10/08 10:56:36;;;;;;;;;2.33;1.33;;;;;;;;2773076;51;10682;-66
2021/10/08 10:59:20;;;;;;;;;2.25;1.00;;;;;;;;2773131;51;8777;-66
2021/10/08 11:02:01;;;;;;;;;2.50;2.50;;;;;;;;2773346;51;8781;-67
2021/10/08 11:04:27;;;;;;;;;2.00;2.00;;;;;;;;2773184;51;8789;-66
2021/10/08 11:07:02;;;;;;;;;1.75;1.75;;;;;;;;2777664;51;8774;-67
2021/10/08 11:09:28;;;;;;;;;4.00;2.50;;;;;;;;2779056;51;8774;-65
2021/10/08 11:12:12;;;;;;;;;3.00;2.00;;;;;;;;2779106;51;9016;-65
2021/10/08 11:14:38;;;;;;;;;2.50;2.00;;;;;;;;2779124;51;11418;-64
2021/10/08 11:17:23;;;;;;;;;1.33;1.33;;;;;;;;2779305;51;8855;-66
2021/10/08 11:19:49;;;;;;;;;2.00;2.00;;;;;;;;2779198;51;8794;-66
2021/10/08 11:22:15;;;;;;;;;1.00;1.00;;;;;;;;2779076;51;8779;-66
2021/10/08 11:24:41;;;;;;;;;2.00;2.00;;;;;;;;2774333;51;8793;-68
2021/10/08 11:27:06;;;;;;;;;3.33;3.33;;;;;;;;2772773;51;10910;-67
2021/10/08 11:29:34;;;;;;;;;1.67;1.67;;;;;;;;2773040;51;11454;-66
2021/10/08 11:32:01;;;;;;;;;2.50;1.75;;;;;;;;2773212;51;8868;-65
2021/10/08 11:34:27;;;;;;;;;3.00;3.00;;;;;;;;2773074;51;8769;-66
2021/10/08 11:36:56;;;;;;;;;2.50;2.50;;;;;;;;2773060;51;8884;-65
2021/10/08 11:39:23;;;;;;;;;1.25;1.25;;;;;;;;2773110;51;8785;-66
2021/10/08 11:42:00;;;;;;;;;0.50;0.50;;;;;;;;2773041;51;8796;-65
2021/10/08 11:44:29;;;;;;;;;1.00;1.00;;;;;;;;2773077;51;8912;-65
2021/10/08 11:52:03;;;;;;;;;2.00;1.25;;;;;;;;2773005;51;9532;-64
2021/10/08 11:54:29;;;;;;;;;1.00;1.00;;;;;;;;2773005;51;8781;-64
2021/10/08 11:57:06;;;;;;;;;2.00;2.00;;;;;;;;2773131;51;8792;-65
2021/10/08 11:59:32;;;;;;;;;2.50;2.50;;;;;;;;2773168;51;11465;-66
2021/10/08 12:02:11;;;;;;;;;2.75;2.00;;;;;;;;2772855;51;8785;-65
2021/10/08 12:04:37;;;;;;;;;1.25;1.25;;;;;;;;2773016;51;9461;-65
2021/10/08 12:07:07;;;;;;;;;3.00;1.50;;;;;;;;2777839;51;8811;-65
2021/10/08 12:09:33;;;;;;;;;1.75;1.00;;;;;;;;2779128;51;8790;-64
2021/10/08 12:12:06;;;;;;;;;2.25;2.25;;;;;;;;2778930;51;8809;-65
2021/10/08 12:14:32;;;;;;;;;2.50;1.00;;;;;;;;2779110;51;8766;-66
2021/10/08 12:17:02;;;;;;;;;3.33;2.33;;;;;;;;2778943;51;8771;-65
2021/10/08 12:19:28;;;;;;;;;2.00;2.00;;;;;;;;2778878;51;8886;-68
2021/10/08 12:21:54;;;;;;;;;2.75;2.00;;;;;;;;2778795;51;8830;-70
2021/10/08 12:24:22;;;;;;;;;2.67;2.00;;;;;;;;2775186;51;9442;-68
2021/10/08 12:26:52;;;;;;;;;2.25;2.25;;;;;;;;2772617;51;8789;-68
2021/10/08 12:29:18;;;;;;;;;1.50;1.50;;;;;;;;2772857;51;8762;-68
2021/10/08 12:31:49;;;;;;;;;3.33;1.00;;;;;;;;2772673;51;8793;-65
2021/10/08 12:34:34;;;;;;;;;2.00;2.00;;;;;;;;2771703;51;8812;-66
2021/10/08 12:37:02;;;;;;;;;4.25;2.00;;;;;;;;2771971;51;8866;-66
2021/10/08 12:39:28;;;;;;;;;2.00;2.00;;;;;;;;2771759;51;8785;-65
2021/10/08 12:41:57;;;;;;;;;3.00;1.00;;;;;;;;2771999;51;8823;-66
2021/10/08 12:44:24;;;;;;;;;3.00;2.00;;;;;;;;2771735;51;8812;-66
2021/10/08 12:47:44;;;;;;;;;1.25;1.00;;;;;;;;2771919;51;8805;-63
2021/10/08 12:49:48;;;;;;;;;1.50;1.00;;;;;;;;2768202;51;8789;-67
2021/10/08 12:52:15;;;;;;;;;2.25;1.75;;;;;;;;2772123;51;8840;-68
2021/10/08 12:54:42;;;;;;;;;4.50;2.25;;;;;;;;2771999;51;8796;-67
2021/10/08 12:57:11;;;;;;;;;2.00;0.50;;;;;;;;2771809;51;8773;-67
2021/10/08 13:00:04;;;;;;;;;2.00;1.50;;;;;;;;2771726;51;8796;-67
2021/10/08 13:02:46;;;;;;;;;2.25;2.25;;;;;;;;2770500;51;8812;-66
2021/10/08 13:05:14;;;;;;;;;3.00;3.00;;;;;;;;2771850;51;8797;-67
2021/10/08 13:07:40;;;;;;;;;4.25;1.00;;;;;;;;2771944;51;8883;-65
2021/10/08 13:10:15;;;;;;;;;2.00;2.00;;;;;;;;2772010;51;8765;-66
2021/10/08 13:12:40;;;;;;;;;2.25;2.25;;;;;;;;2772113;51;8904;-68
2021/10/08 13:15:07;;;;;;;;;2.00;2.00;;;;;;;;2771612;51;8805;-67
2021/10/08 13:17:33;;;;;;;;;2.00;1.00;;;;;;;;2771654;51;9357;-67
2021/10/08 13:20:02;;;;;;;;;8.33;3.67;;;;;;;;2772052;51;8885;-65
2021/10/08 13:22:28;;;;;;;;;2.00;2.00;;;;;;;;2771605;51;11459;-68
2021/10/08 13:24:53;;;;;;;;;2.50;2.50;;;;;;;;2771915;51;8805;-67
2021/10/08 13:27:19;;;;;;;;;3.00;3.00;;;;;;;;2771819;51;8870;-66
2021/10/08 13:29:45;;;;;;;;;1.00;0.33;;;;;;;;2771697;51;11451;-68
2021/10/08 13:32:11;;;;;;;;;2.00;2.00;;;;;;;;2771677;51;10085;-65
2021/10/08 13:34:37;;;;;;;;;5.67;3.00;;;;;;;;2772631;51;8781;-68
2021/10/08 13:37:02;;;;;;;;;1.75;1.50;;;;;;;;2772634;51;8800;-66
2021/10/08 13:39:28;;;;;;;;;1.33;1.33;;;;;;;;2772733;51;8811;-67
2021/10/08 13:41:54;;;;;;;;;1.00;1.00;;;;;;;;2772278;51;10768;-65
2021/10/08 13:44:20;;;;;;;;;5.00;3.67;;;;;;;;2772558;51;11472;-67
2021/10/08 13:46:46;;;;;;;;;1.33;1.00;;;;;;;;2772581;51;8808;-67
2021/10/08 13:49:12;;;;;;;;;0.25;0.25;;;;;;;;2772411;51;11475;-70
2021/10/08 13:51:37;;;;;;;;;2.00;2.00;;;;;;;;2770028;51;8781;-66
2021/10/08 13:54:03;;;;;;;;;1.00;1.00;;;;;;;;2772809;51;9414;-65
2021/10/08 13:56:29;;;;;;;;;1.50;1.50;;;;;;;;2772426;51;8792;-65
2021/10/08 13:58:55;;;;;;;;;0.67;0.67;;;;;;;;2772453;51;8789;-66
2021/10/08 14:01:21;;;;;;;;;2.33;1.00;;;;;;;;2772236;51;9286;-65
2021/10/08 14:03:54;;;;;;;;;0.75;0.75;;;;;;;;2772351;51;11592;-65
2021/10/08 14:09:12;;;;;;;;;7.25;3.00;;;;;;;;2772324;51;9476;-66
2021/10/08 14:11:37;;;;;;;;;2.75;2.75;;;;;;;;2772371;51;9054;-66
2021/10/08 14:14:03;;;;;;;;;0.00;0.00;;;;;;;;2772779;51;8789;-65
2021/10/08 14:16:29;;;;;;;;;2.00;1.67;;;;;;;;2772234;51;8800;-66
2021/10/08 14:18:55;;;;;;;;;4.50;2.00;;;;;;;;2772321;51;11466;-66
2021/10/08 14:21:21;;;;;;;;;4.00;1.67;;;;;;;;2772556;51;8777;-66
2021/10/08 14:23:47;;;;;;;;;3.50;2.50;;;;;;;;2772909;51;8909;-65
2021/10/08 14:26:13;;;;;;;;;3.00;1.67;;;;;;;;2774229;51;8869;-67
2021/10/08 14:28:38;;;;;;;;;2.00;2.00;;;;;;;;2774733;51;8817;-65
2021/10/08 14:31:04;;;;;;;;;5.33;3.00;;;;;;;;2774795;51;8824;-64
2021/10/08 14:33:30;;;;;;;;;3.50;2.00;;;;;;;;2775268;51;11466;-65
2021/10/08 14:35:55;;;;;;;;;4.33;2.00;;;;;;;;2775255;51;8806;-65
2021/10/08 14:38:21;;;;;;;;;1.67;1.67;;;;;;;;2774869;51;8794;-64
2021/10/08 14:40:48;;;;;;;;;1.00;1.00;;;;;;;;2775734;51;10696;-68
2021/10/08 14:43:13;;;;;;;;;1.00;1.00;;;;;;;;2775395;51;8941;-65
2021/10/08 14:45:39;;;;;;;;;1.00;1.00;;;;;;;;2775551;51;8777;-65
2021/10/08 14:48:05;;;;;;;;;1.00;1.00;;;;;;;;2775473;51;8790;-64
2021/10/08 14:50:31;;;;;;;;;6.00;2.25;;;;;;;;2775217;51;8790;-67
2021/10/08 14:52:57;;;;;;;;;3.00;1.50;;;;;;;;2775309;51;8788;-67
2021/10/08 14:57:58;;;;;;;;;5.25;1.75;;;;;;;;2775363;51;8797;-65
2021/10/08 15:00:26;;;;;;;;;3.00;3.00;;;;;;;;2775275;51;8794;-67
2021/10/08 15:02:52;;;;;;;;;1.50;1.50;;;;;;;;2775054;51;8798;-67
2021/10/08 15:05:18;;;;;;;;;2.67;2.00;;;;;;;;2775225;51;9577;-66
2021/10/08 15:07:44;;;;;;;;;3.75;3.50;;;;;;;;2775442;51;9827;-66
2021/10/08 15:10:10;;;;;;;;;1.00;1.00;;;;;;;;2775307;51;8767;-66
2021/10/08 15:12:35;;;;;;;;;3.00;2.00;;;;;;;;2775321;51;8912;-67